Powell, WY

7:30 AM MDT on June 30, 2015 (GMT -0600)
Crestview Estates | | Change Station
CLOSE
Current Station
Personal Weather Station
Location: Powell, WY
Elevation: 4507 ft
Nearby Weather Stations

Elev 4507 ft 44.75 °N, 108.82 °W | Updated 1 second ago

Partly Cloudy
Partly Cloudy
70.5 °F
Feels Like 76 °F
N
2.3
Wind Variable Wind from SW
Gusts 2.3 mph

Today
High -- | Low -- °F
--% Chance of Precip.
Yesterday
High -- | Low -- °F
Precip. -- in
5:32 AM 9:05 PM
Waxing Gibbous, 97% visible
Pressure 30.10 in
Visibility 10.0 miles
Clouds Few 12000 ft
Heat Index 76 °F
Dew Point 57 °F
Humidity 62%
Rainfall 0.00 in
Snow Depth Not available.
UV 1 out of 12
Pollen 6.30 out of 12
Air Quality Not available.
Flu Activity Sporadic
METAR KCOD 301315Z 06003KT 10SM FEW120 22/13 A3010 RMK AO1

More Conditions Fewer Conditions

Pressure 30.10 in
Visibility 10.0 miles
Clouds Few 12000 ft
Heat Index 76 °F
Dew Point 57 °F
Humidity 62%
Rainfall 0.00 in
Snow Depth Not available.
UV 1 out of 12
Pollen 6.30 out of 12
Air Quality Not available.
Flu Activity Sporadic
METAR KCOD 301315Z 06003KT 10SM FEW120 22/13 A3010 RMK AO1

More Conditions Fewer Conditions

10-Day Weather Forecast

×

Almanac

Astronomy

Jun. 30, 2015 Rise Set
Actual Time
Civil Twilight
Nautical Twilight
Astronomical Twilight
Moon
Length of Visible Light
Length of Day
Tomorrow will be .
, % of the Moon is Illuminated

Today's Extremes

State Highs State Lows

Community

WunderPhotos

Upload Photos

1,833,994 photos uploaded!

WunderBlogs® & News

Nearby

Air Quality

  Air Quality AQ Index Pollutant
Not available.

Snow Depth

Station Depth Elevation

Earthquake Activity

City Distance Mag. Time & Date
Minimum magnitude displayed is 2.5.

Coastal Water Temperatures

Place Temperature

Stations

Nearby Weather Stations

Station Location Temp. Windchill Dew Point Humidity Wind Precip. Elev Updated Type